Cfl Performer — PHLY — position and weather

sailwx.info

Track history (hours):
 
Tides and Currents Weather Stations Pressure Air Temp Water Temp Dewpoint Dewpoint Depression Visibility Wind Speed Wind Dir Waves Ship Positions

Cfl Performer

Last reported at 2017-Jul-21 05:36 UTC. Time now 2017-Jul-23 12:36 UTC.
Position N 36°32' W 009°44'.

Length 117 m; draft 5.3 m.

Type: Cargo ship. MMSI: 244989000.

Date/timePositionNaut miles runAvg speedWind from/ knotsBaromVisibWave heightAir tempDewpointWater temp
2017-Jul-21 05:36N 36°32' W 009°44'210.3
2017-Jul-21 05:21N 36°34' W 009°45'810.0
2017-Jul-21 04:35N 36°42' W 009°47'110.1
2017-Jul-21 04:30N 36°42' W 009°48'9010.6
2017-Jul-20 20:04N 38°12' W 010°02'110.8
2017-Jul-20 20:00N 38°12' W 010°02'510.7
2017-Jul-20 19:30N 38°18' W 010°02'510.7
2017-Jul-20 19:00N 38°23' W 010°03'510.8
2017-Jul-20 18:30N 38°28' W 010°04'510.7
2017-Jul-20 18:00N 38°34' W 010°04'510.6
2017-Jul-20 17:30N 38°39' W 010°05'510.8
2017-Jul-20 17:00N 38°44' W 010°05'510.6
2017-Jul-20 16:30N 38°50' W 010°05'510.5
2017-Jul-20 16:00N 38°55' W 010°05'510.6
2017-Jul-20 15:30N 39°00' W 010°05'510.5
2017-Jul-20 15:00N 39°05' W 010°05'1110.5
2017-Jul-20 14:00N 39°16' W 010°05'  
2017-Jul-18 04:39N 48°22' W 006°10'210.8
2017-Jul-18 04:30N 48°23' W 006°09'511.0
2017-Jul-18 04:00N 48°28' W 006°06'611.3
2017-Jul-18 03:30N 48°33' W 006°02'611.3
2017-Jul-18 03:00N 48°38' W 005°58'611.5
2017-Jul-18 02:30N 48°43' W 005°53'611.3
2017-Jul-18 02:00N 48°48' W 005°49'610.7
2017-Jul-18 01:26N 48°53' W 005°44'410.6
2017-Jul-18 01:00N 48°55' W 005°38'510.4
2017-Jul-18 00:30N 48°58' W 005°31'510.2
2017-Jul-18 00:00N 49°01' W 005°25'510.0
2017-Jul-17 23:30N 49°03' W 005°18'5 9.9
2017-Jul-17 23:00N 49°06' W 005°11'5 9.8
2017-Jul-17 22:28N 49°08' W 005°04'5 9.8
2017-Jul-17 21:56N 49°11' W 004°58'4 9.8
2017-Jul-17 21:30N 49°13' W 004°52'5 9.8
2017-Jul-17 21:00N 49°16' W 004°45'510.1
2017-Jul-17 20:30N 49°18' W 004°39'510.3
2017-Jul-17 20:00N 49°21' W 004°32'510.5
2017-Jul-17 19:30N 49°24' W 004°25'510.7
2017-Jul-17 19:00N 49°26' W 004°18'510.9
2017-Jul-17 18:30N 49°29' W 004°11'611.2
2017-Jul-17 18:00N 49°32' W 004°03'611.4
2017-Jul-17 17:30N 49°35' W 003°56'611.4
2017-Jul-17 17:00N 49°38' W 003°48'611.3
2017-Jul-17 16:30N 49°40' W 003°40'611.1
2017-Jul-17 16:00N 49°43' W 003°33'510.6
2017-Jul-17 15:30N 49°46' W 003°26'510.3
2017-Jul-17 15:00N 49°49' W 003°19'5 9.9
2017-Jul-17 14:30N 49°51' W 003°13'5 9.7
2017-Jul-17 14:00N 49°54' W 003°06'5 9.5
2017-Jul-17 13:30N 49°56' W 002°60'5 9.3
2017-Jul-17 13:00N 49°58' W 002°53'5 9.4
2017-Jul-17 12:30N 49°59' W 002°46'5 9.3
2017-Jul-17 12:00N 50°01' W 002°39'14 9.7
2017-Jul-17 10:33N 50°04' W 002°18'310.6
2017-Jul-17 10:15N 50°04' W 002°13'411.0
2017-Jul-17 09:55N 50°05' W 002°07'511.5
2017-Jul-17 09:30N 50°06' W 002°00'612.0
2017-Jul-17 09:00N 50°08' W 001°51'612.6
2017-Jul-17 08:31N 50°10' W 001°42'612.8
2017-Jul-17 08:00N 50°13' W 001°33'713.1
2017-Jul-17 07:30N 50°15' W 001°23'1118.1
2017-Jul-17 06:55N 50°18' W 001°07'3 6.4
2017-Jul-17 06:29N 50°19' W 001°03'1112.5
2017-Jul-17 05:36N 50°23' W 000°46'211.7
2017-Jul-17 05:25N 50°23' W 000°43'511.2
2017-Jul-17 04:59N 50°25' W 000°36'510.9
2017-Jul-17 04:29N 50°27' W 000°28'510.5
2017-Jul-17 04:00N 50°28' W 000°21'5 9.9
2017-Jul-17 03:30N 50°30' W 000°13'5 9.5
2017-Jul-17 03:00N 50°31' W 000°06'5 9.1
2017-Jul-17 02:30N 50°33' E 000°01'4 8.8
2017-Jul-17 02:00N 50°34' E 000°08'4 8.8
2017-Jul-17 01:30N 50°35' E 000°14'4 8.9
2017-Jul-17 01:00N 50°36' E 000°21'5 9.4
2017-Jul-17 00:29N 50°37' E 000°28'5 9.9
2017-Jul-17 00:00N 50°39' E 000°36'510.7
2017-Jul-16 23:30N 50°42' E 000°43'611.2
2017-Jul-16 23:00N 50°45' E 000°50'611.5
2017-Jul-16 22:30N 50°49' E 000°57'611.6
2017-Jul-16 22:00N 50°52' E 001°04'611.3
2017-Jul-16 21:30N 50°56' E 001°11'610.9
2017-Jul-16 20:58N 51°00' E 001°18'510.6
2017-Jul-16 20:30N 51°03' E 001°24'510.0
2017-Jul-16 20:00N 51°06' E 001°30'5 9.3
2017-Jul-16 19:30N 51°09' E 001°36'4 8.8
2017-Jul-16 19:00N 51°11' E 001°42'4 8.6
2017-Jul-16 18:30N 51°14' E 001°47'4 8.6
2017-Jul-16 18:00N 51°18' E 001°50'4 8.5
2017-Jul-16 17:30N 51°22' E 001°54'4 8.8
2017-Jul-16 17:00N 51°25' E 001°59'5 9.5
2017-Jul-16 16:30N 51°24' E 002°06'5 9.9
2017-Jul-16 16:00N 51°22' E 002°14'5 9.3
2017-Jul-16 15:30N 51°21' E 002°21'510.2
2017-Jul-16 15:00N 51°23' E 002°29'510.4
2017-Jul-16 14:30N 51°22' E 002°37'510.5
2017-Jul-16 14:00N 51°22' E 002°46'510.9
2017-Jul-16 13:30N 51°23' E 002°54'611.4
2017-Jul-16 13:00N 51°24' E 003°03'611.1
2017-Jul-16 12:30N 51°24' E 003°12'511.0
2017-Jul-16 12:00N 51°24' E 003°21'611.5
2017-Jul-16 11:30N 51°25' E 003°30'510.2
2017-Jul-16 11:00N 51°26' E 003°38'3 4.4
2017-Jul-16 10:18N 51°28' E 003°42'0 0.0
2017-Jul-16 09:30N 51°28' E 003°42'0 0.0
2017-Jul-16 08:42N 51°28' E 003°42'0 0.0
2017-Jul-16 08:06N 51°28' E 003°42'0 0.0
2017-Jul-16 07:59N 51°28' E 003°42'0 0.0
2017-Jul-16 07:17N 51°28' E 003°42'0 0.0
2017-Jul-16 06:54N 51°28' E 003°42'0 0.0
2017-Jul-16 06:18N 51°28' E 003°42'0 0.0
2017-Jul-16 05:53N 51°28' E 003°42'0 0.0
2017-Jul-16 05:30N 51°28' E 003°42'0 0.1
2017-Jul-16 04:12N 51°28' E 003°42'0 0.3
2017-Jul-16 03:47N 51°28' E 003°42'0 0.0
2017-Jul-16 03:24N 51°28' E 003°42'0 0.0
2017-Jul-16 01:59N 51°28' E 003°42'0 0.0
2017-Jul-16 01:08N 51°28' E 003°42'0 0.0
2017-Jul-16 00:59N 51°28' E 003°42'0 0.0
2017-Jul-16 00:05N 51°28' E 003°42'0 0.0
2017-Jul-15 23:44N 51°28' E 003°42'0 0.0
2017-Jul-15 23:29N 51°28' E 003°42'0 0.0
2017-Jul-15 22:50N 51°28' E 003°42'0 0.0
2017-Jul-15 22:11N 51°28' E 003°42'0 0.0
2017-Jul-15 21:26N 51°28' E 003°42'0 0.0
2017-Jul-15 20:44N 51°28' E 003°42'0 0.0
2017-Jul-15 20:17N 51°28' E 003°42'0 0.7
2017-Jul-15 19:53N 51°28' E 003°42'0 0.0
2017-Jul-15 18:41N 51°28' E 003°42'0 0.0
2017-Jul-15 18:23N 51°28' E 003°42'0 0.0
2017-Jul-15 17:59N 51°28' E 003°42'0 0.0
2017-Jul-15 17:23N 51°28' E 003°42'0 0.0
2017-Jul-15 16:47N 51°28' E 003°42'0 0.0
2017-Jul-15 16:29N 51°28' E 003°42'0 0.0
2017-Jul-15 15:59N 51°28' E 003°42'0 0.0
2017-Jul-15 15:29N 51°28' E 003°42'0 0.0
2017-Jul-15 14:56N 51°28' E 003°42'0 0.0
2017-Jul-15 13:23N 51°28' E 003°42'0 0.0
2017-Jul-15 12:59N 51°28' E 003°42'0 0.0
2017-Jul-15 11:59N 51°28' E 003°42'0 0.0
2017-Jul-15 11:29N 51°28' E 003°42'0 0.0
2017-Jul-15 10:59N 51°28' E 003°42'0 0.0
2017-Jul-15 10:29N 51°28' E 003°42'0 0.0
2017-Jul-15 09:38N 51°28' E 003°42'0 0.0
2017-Jul-15 09:23N 51°28' E 003°42'0 0.0
2017-Jul-15 08:11N 51°28' E 003°42'0 0.0
2017-Jul-15 07:47N 51°28' E 003°42'0 0.0
2017-Jul-15 07:29N 51°28' E 003°42'0 0.0
2017-Jul-15 06:41N 51°28' E 003°42'0 0.0
2017-Jul-15 06:23N 51°28' E 003°42'0 0.0
2017-Jul-15 05:47N 51°28' E 003°42'0 0.0
2017-Jul-15 00:44N 51°28' E 003°42'0 0.0
2017-Jul-14 21:05N 51°28' E 003°42'0 0.0
2017-Jul-14 20:41N 51°28' E 003°42'0 0.0
2017-Jul-14 20:14N 51°28' E 003°42'0 0.0
2017-Jul-14 18:29N 51°28' E 003°42'0 0.0
2017-Jul-14 17:59N 51°28' E 003°42'0 0.0
2017-Jul-14 17:29N 51°28' E 003°42'0 0.0
2017-Jul-14 16:38N 51°28' E 003°42'0 0.0
2017-Jul-14 16:26N 51°28' E 003°42'0 0.0
2017-Jul-14 15:41N 51°28' E 003°42'0 0.0
2017-Jul-14 15:26N 51°28' E 003°42'0 0.0
2017-Jul-14 14:59N 51°28' E 003°42'0 0.0
2017-Jul-14 13:53N 51°28' E 003°42'0 0.0
2017-Jul-14 13:29N 51°28' E 003°42'0 0.0
2017-Jul-14 12:11N 51°28' E 003°42'0 0.0
2017-Jul-14 11:59N 51°28' E 003°42'0 0.1
2017-Jul-14 07:08N 51°28' E 003°42'0 0.0
2017-Jul-14 02:17N 51°28' E 003°42'0 0.0
2017-Jul-14 01:59N 51°28' E 003°42'0 0.0
2017-Jul-14 00:05N 51°28' E 003°42'0 0.0
2017-Jul-13 22:32N 51°28' E 003°42'0 0.1
2017-Jul-13 22:26N 51°28' E 003°42'0 0.0
2017-Jul-13 21:56N 51°28' E 003°42'0 0.0
2017-Jul-13 21:14N 51°28' E 003°42'0 0.0
2017-Jul-13 20:59N 51°28' E 003°42'0 0.0
2017-Jul-13 19:56N 51°28' E 003°42'0 0.0
2017-Jul-13 19:23N 51°28' E 003°42'0 0.0
2017-Jul-13 16:53N 51°28' E 003°42'0 0.0
2017-Jul-13 16:23N 51°28' E 003°42'0 0.0
2017-Jul-13 15:02N 51°28' E 003°42'0 0.0
2017-Jul-13 13:50N 51°28' E 003°42'0 0.0
2017-Jul-13 13:05N 51°28' E 003°42'0 0.0
2017-Jul-13 12:44N 51°28' E 003°42'0 0.0
2017-Jul-13 11:29N 51°28' E 003°42'0 0.0
2017-Jul-13 10:26N 51°28' E 003°42'0 0.0
2017-Jul-13 05:14N 51°28' E 003°42'0 0.0
2017-Jul-13 04:50N 51°28' E 003°42'0 0.0
2017-Jul-13 04:05N 51°28' E 003°42'0 0.0
2017-Jul-13 01:53N 51°28' E 003°42'0 0.0
2017-Jul-12 23:59N 51°28' E 003°42'0 0.0
2017-Jul-12 22:26N 51°28' E 003°42'0 0.0
2017-Jul-12 21:53N 51°28' E 003°42'1 2.1
2017-Jul-12 21:17N 51°27' E 003°41'3 9.0
2017-Jul-12 21:00N 51°26' E 003°37'4 8.6
2017-Jul-12 20:30N 51°28' E 003°31'510.4
2017-Jul-12 20:01N 51°32' E 003°25'5 9.7
2017-Jul-12 19:30N 51°36' E 003°22'713.6
2017-Jul-12 19:00N 51°42' E 003°17'4 7.7
2017-Jul-12 18:30N 51°46' E 003°17'3 0.4
2017-Jul-12 09:58N 51°48' E 003°21'0 0.0
2017-Jul-12 09:30N 51°48' E 003°21'0 0.0
2017-Jul-12 09:00N 51°48' E 003°21'0 0.0
2017-Jul-12 08:30N 51°48' E 003°21'0 0.1
2017-Jul-12 07:59N 51°48' E 003°21'0 0.2
2017-Jul-12 07:30N 51°48' E 003°21'0 0.2
2017-Jul-12 06:43N 51°48' E 003°21'0 0.0
2017-Jul-12 06:30N 51°48' E 003°21'0 0.0
2017-Jul-12 06:00N 51°48' E 003°21'0 0.0
2017-Jul-12 05:30N 51°48' E 003°21'0 0.0
2017-Jul-12 05:00N 51°48' E 003°21'0 0.0
2017-Jul-12 04:30N 51°48' E 003°21'0 0.0
2017-Jul-12 04:00N 51°48' E 003°21'0 0.0
2017-Jul-12 03:30N 51°48' E 003°21'0 0.0
2017-Jul-12 03:00N 51°48' E 003°21'0 0.0
2017-Jul-12 02:30N 51°48' E 003°21'0 0.0
2017-Jul-12 02:00N 51°48' E 003°21'0 0.0
2017-Jul-12 01:30N 51°48' E 003°21'0 0.2
2017-Jul-12 01:00N 51°48' E 003°21'0 0.1
2017-Jul-12 00:30N 51°48' E 003°21'0 0.1
2017-Jul-12 00:00N 51°48' E 003°21'0 0.0
2017-Jul-11 23:30N 51°48' E 003°21'0 0.0
2017-Jul-11 22:40N 51°48' E 003°21'0 0.0
2017-Jul-11 22:29N 51°48' E 003°21'0 0.0
2017-Jul-11 22:00N 51°48' E 003°21'0 0.2
2017-Jul-11 21:30N 51°48' E 003°21'0 0.2
2017-Jul-11 21:00N 51°48' E 003°22'0 0.2
2017-Jul-11 20:30N 51°48' E 003°22'0 0.0
2017-Jul-11 20:00N 51°48' E 003°22'0 0.1
2017-Jul-11 19:30N 51°48' E 003°22'0 0.0
2017-Jul-11 19:00N 51°48' E 003°22'0 0.0
2017-Jul-11 18:30N 51°48' E 003°22'0 0.0
2017-Jul-11 18:00N 51°48' E 003°22'0 0.0
2017-Jul-11 17:30N 51°48' E 003°22'0 0.0
2017-Jul-11 17:00N 51°48' E 003°21'0 0.0
2017-Jul-11 16:30N 51°48' E 003°21'0 0.0
2017-Jul-11 16:00N 51°48' E 003°22'0 0.0
2017-Jul-11 15:30N 51°48' E 003°21'0 0.1
2017-Jul-11 15:00N 51°48' E 003°22'0 0.0
2017-Jul-11 14:30N 51°48' E 003°22'0 0.0
2017-Jul-11 14:00N 51°48' E 003°22'0 0.0
2017-Jul-11 13:30N 51°48' E 003°22'0 0.1
2017-Jul-11 12:44N 51°48' E 003°21'0 0.0
2017-Jul-11 12:30N 51°48' E 003°21'0 0.1
2017-Jul-11 12:00N 51°48' E 003°21'0 0.1
2017-Jul-11 11:30N 51°48' E 003°21'0 0.0
2017-Jul-11 11:00N 51°48' E 003°21'0 0.0
2017-Jul-11 10:30N 51°48' E 003°21'0 0.0
2017-Jul-11 10:00N 51°48' E 003°21'0 0.0
2017-Jul-11 09:04N 51°48' E 003°21'0 0.0
2017-Jul-11 09:00N 51°48' E 003°21'0 0.1
2017-Jul-11 08:30N 51°48' E 003°21'0 0.1
2017-Jul-11 08:00N 51°48' E 003°21'0 0.2
2017-Jul-11 07:30N 51°48' E 003°22'0 0.1
2017-Jul-11 07:00N 51°48' E 003°22'0 0.0
2017-Jul-11 06:30N 51°48' E 003°22'0 0.0
2017-Jul-11 06:00N 51°48' E 003°22'  
Track history (hours):
 
Tides and Currents Weather Stations Pressure Air Temp Water Temp Dewpoint Dewpoint Depression Visibility Wind Speed Wind Dir Waves Ship Positions

Cfl Performer

Last reported at 2017-Jul-21 05:36 UTC. Time now 2017-Jul-23 12:36 UTC.
Position N 36°32' W 009°44'.

Length 117 m; draft 5.3 m.

Type: Cargo ship. MMSI: 244989000.

Date/timePositionNaut miles runAvg speedWind from/ knotsBaromVisibWave heightAir tempDewpointWater temp
2017-Jul-21 05:36N 36°32' W 009°44'210.3
2017-Jul-21 05:21N 36°34' W 009°45'810.0
2017-Jul-21 04:35N 36°42' W 009°47'110.1
2017-Jul-21 04:30N 36°42' W 009°48'9010.6
2017-Jul-20 20:04N 38°12' W 010°02'110.8
2017-Jul-20 20:00N 38°12' W 010°02'510.7
2017-Jul-20 19:30N 38°18' W 010°02'510.7
2017-Jul-20 19:00N 38°23' W 010°03'510.8
2017-Jul-20 18:30N 38°28' W 010°04'510.7
2017-Jul-20 18:00N 38°34' W 010°04'510.6
2017-Jul-20 17:30N 38°39' W 010°05'510.8
2017-Jul-20 17:00N 38°44' W 010°05'510.6
2017-Jul-20 16:30N 38°50' W 010°05'510.5
2017-Jul-20 16:00N 38°55' W 010°05'510.6
2017-Jul-20 15:30N 39°00' W 010°05'510.5
2017-Jul-20 15:00N 39°05' W 010°05'1110.5
2017-Jul-20 14:00N 39°16' W 010°05'  
2017-Jul-18 04:39N 48°22' W 006°10'210.8
2017-Jul-18 04:30N 48°23' W 006°09'511.0
2017-Jul-18 04:00N 48°28' W 006°06'611.3
2017-Jul-18 03:30N 48°33' W 006°02'611.3
2017-Jul-18 03:00N 48°38' W 005°58'611.5
2017-Jul-18 02:30N 48°43' W 005°53'611.3
2017-Jul-18 02:00N 48°48' W 005°49'610.7
2017-Jul-18 01:26N 48°53' W 005°44'410.6
2017-Jul-18 01:00N 48°55' W 005°38'510.4
2017-Jul-18 00:30N 48°58' W 005°31'510.2
2017-Jul-18 00:00N 49°01' W 005°25'510.0
2017-Jul-17 23:30N 49°03' W 005°18'5 9.9
2017-Jul-17 23:00N 49°06' W 005°11'5 9.8
2017-Jul-17 22:28N 49°08' W 005°04'5 9.8
2017-Jul-17 21:56N 49°11' W 004°58'4 9.8
2017-Jul-17 21:30N 49°13' W 004°52'5 9.8
2017-Jul-17 21:00N 49°16' W 004°45'510.1
2017-Jul-17 20:30N 49°18' W 004°39'510.3
2017-Jul-17 20:00N 49°21' W 004°32'510.5
2017-Jul-17 19:30N 49°24' W 004°25'510.7
2017-Jul-17 19:00N 49°26' W 004°18'510.9
2017-Jul-17 18:30N 49°29' W 004°11'611.2
2017-Jul-17 18:00N 49°32' W 004°03'611.4
2017-Jul-17 17:30N 49°35' W 003°56'611.4
2017-Jul-17 17:00N 49°38' W 003°48'611.3
2017-Jul-17 16:30N 49°40' W 003°40'611.1
2017-Jul-17 16:00N 49°43' W 003°33'510.6
2017-Jul-17 15:30N 49°46' W 003°26'510.3
2017-Jul-17 15:00N 49°49' W 003°19'5 9.9
2017-Jul-17 14:30N 49°51' W 003°13'5 9.7
2017-Jul-17 14:00N 49°54' W 003°06'5 9.5
2017-Jul-17 13:30N 49°56' W 002°60'5 9.3
2017-Jul-17 13:00N 49°58' W 002°53'5 9.4
2017-Jul-17 12:30N 49°59' W 002°46'5 9.3
2017-Jul-17 12:00N 50°01' W 002°39'14 9.7
2017-Jul-17 10:33N 50°04' W 002°18'310.6
2017-Jul-17 10:15N 50°04' W 002°13'411.0
2017-Jul-17 09:55N 50°05' W 002°07'511.5
2017-Jul-17 09:30N 50°06' W 002°00'612.0
2017-Jul-17 09:00N 50°08' W 001°51'612.6
2017-Jul-17 08:31N 50°10' W 001°42'612.8
2017-Jul-17 08:00N 50°13' W 001°33'713.1
2017-Jul-17 07:30N 50°15' W 001°23'1118.1
2017-Jul-17 06:55N 50°18' W 001°07'3 6.4
2017-Jul-17 06:29N 50°19' W 001°03'1112.5
2017-Jul-17 05:36N 50°23' W 000°46'211.7
2017-Jul-17 05:25N 50°23' W 000°43'511.2
2017-Jul-17 04:59N 50°25' W 000°36'510.9
2017-Jul-17 04:29N 50°27' W 000°28'510.5
2017-Jul-17 04:00N 50°28' W 000°21'5 9.9
2017-Jul-17 03:30N 50°30' W 000°13'5 9.5
2017-Jul-17 03:00N 50°31' W 000°06'5 9.1
2017-Jul-17 02:30N 50°33' E 000°01'4 8.8
2017-Jul-17 02:00N 50°34' E 000°08'4 8.8
2017-Jul-17 01:30N 50°35' E 000°14'4 8.9
2017-Jul-17 01:00N 50°36' E 000°21'5 9.4
2017-Jul-17 00:29N 50°37' E 000°28'5 9.9
2017-Jul-17 00:00N 50°39' E 000°36'510.7
2017-Jul-16 23:30N 50°42' E 000°43'611.2
2017-Jul-16 23:00N 50°45' E 000°50'611.5
2017-Jul-16 22:30N 50°49' E 000°57'611.6
2017-Jul-16 22:00N 50°52' E 001°04'611.3
2017-Jul-16 21:30N 50°56' E 001°11'610.9
2017-Jul-16 20:58N 51°00' E 001°18'510.6
2017-Jul-16 20:30N 51°03' E 001°24'510.0
2017-Jul-16 20:00N 51°06' E 001°30'5 9.3
2017-Jul-16 19:30N 51°09' E 001°36'4 8.8
2017-Jul-16 19:00N 51°11' E 001°42'4 8.6
2017-Jul-16 18:30N 51°14' E 001°47'4 8.6
2017-Jul-16 18:00N 51°18' E 001°50'4 8.5
2017-Jul-16 17:30N 51°22' E 001°54'4 8.8
2017-Jul-16 17:00N 51°25' E 001°59'5 9.5
2017-Jul-16 16:30N 51°24' E 002°06'5 9.9
2017-Jul-16 16:00N 51°22' E 002°14'5 9.3
2017-Jul-16 15:30N 51°21' E 002°21'510.2
2017-Jul-16 15:00N 51°23' E 002°29'510.4
2017-Jul-16 14:30N 51°22' E 002°37'510.5
2017-Jul-16 14:00N 51°22' E 002°46'510.9
2017-Jul-16 13:30N 51°23' E 002°54'611.4
2017-Jul-16 13:00N 51°24' E 003°03'611.1
2017-Jul-16 12:30N 51°24' E 003°12'511.0
2017-Jul-16 12:00N 51°24' E 003°21'611.5
2017-Jul-16 11:30N 51°25' E 003°30'510.2
2017-Jul-16 11:00N 51°26' E 003°38'3 4.4
2017-Jul-16 10:18N 51°28' E 003°42'0 0.0
2017-Jul-16 09:30N 51°28' E 003°42'0 0.0
2017-Jul-16 08:42N 51°28' E 003°42'0 0.0
2017-Jul-16 08:06N 51°28' E 003°42'0 0.0
2017-Jul-16 07:59N 51°28' E 003°42'0 0.0
2017-Jul-16 07:17N 51°28' E 003°42'0 0.0
2017-Jul-16 06:54N 51°28' E 003°42'0 0.0
2017-Jul-16 06:18N 51°28' E 003°42'0 0.0
2017-Jul-16 05:53N 51°28' E 003°42'0 0.0
2017-Jul-16 05:30N 51°28' E 003°42'0 0.1
2017-Jul-16 04:12N 51°28' E 003°42'0 0.3
2017-Jul-16 03:47N 51°28' E 003°42'0 0.0
2017-Jul-16 03:24N 51°28' E 003°42'0 0.0
2017-Jul-16 01:59N 51°28' E 003°42'0 0.0
2017-Jul-16 01:08N 51°28' E 003°42'0 0.0
2017-Jul-16 00:59N 51°28' E 003°42'0 0.0
2017-Jul-16 00:05N 51°28' E 003°42'0 0.0
2017-Jul-15 23:44N 51°28' E 003°42'0 0.0
2017-Jul-15 23:29N 51°28' E 003°42'0 0.0
2017-Jul-15 22:50N 51°28' E 003°42'0 0.0
2017-Jul-15 22:11N 51°28' E 003°42'0 0.0
2017-Jul-15 21:26N 51°28' E 003°42'0 0.0
2017-Jul-15 20:44N 51°28' E 003°42'0 0.0
2017-Jul-15 20:17N 51°28' E 003°42'0 0.7
2017-Jul-15 19:53N 51°28' E 003°42'0 0.0
2017-Jul-15 18:41N 51°28' E 003°42'0 0.0
2017-Jul-15 18:23N 51°28' E 003°42'0 0.0
2017-Jul-15 17:59N 51°28' E 003°42'0 0.0
2017-Jul-15 17:23N 51°28' E 003°42'0 0.0
2017-Jul-15 16:47N 51°28' E 003°42'0 0.0
2017-Jul-15 16:29N 51°28' E 003°42'0 0.0
2017-Jul-15 15:59N 51°28' E 003°42'0 0.0
2017-Jul-15 15:29N 51°28' E 003°42'0 0.0
2017-Jul-15 14:56N 51°28' E 003°42'0 0.0
2017-Jul-15 13:23N 51°28' E 003°42'0 0.0
2017-Jul-15 12:59N 51°28' E 003°42'0 0.0
2017-Jul-15 11:59N 51°28' E 003°42'0 0.0
2017-Jul-15 11:29N 51°28' E 003°42'0 0.0
2017-Jul-15 10:59N 51°28' E 003°42'0 0.0
2017-Jul-15 10:29N 51°28' E 003°42'0 0.0
2017-Jul-15 09:38N 51°28' E 003°42'0 0.0
2017-Jul-15 09:23N 51°28' E 003°42'0 0.0
2017-Jul-15 08:11N 51°28' E 003°42'0 0.0
2017-Jul-15 07:47N 51°28' E 003°42'0 0.0
2017-Jul-15 07:29N 51°28' E 003°42'0 0.0
2017-Jul-15 06:41N 51°28' E 003°42'0 0.0
2017-Jul-15 06:23N 51°28' E 003°42'0 0.0
2017-Jul-15 05:47N 51°28' E 003°42'0 0.0
2017-Jul-15 00:44N 51°28' E 003°42'0 0.0
2017-Jul-14 21:05N 51°28' E 003°42'0 0.0
2017-Jul-14 20:41N 51°28' E 003°42'0 0.0
2017-Jul-14 20:14N 51°28' E 003°42'0 0.0
2017-Jul-14 18:29N 51°28' E 003°42'0 0.0
2017-Jul-14 17:59N 51°28' E 003°42'0 0.0
2017-Jul-14 17:29N 51°28' E 003°42'0 0.0
2017-Jul-14 16:38N 51°28' E 003°42'0 0.0
2017-Jul-14 16:26N 51°28' E 003°42'0 0.0
2017-Jul-14 15:41N 51°28' E 003°42'0 0.0
2017-Jul-14 15:26N 51°28' E 003°42'0 0.0
2017-Jul-14 14:59N 51°28' E 003°42'0 0.0
2017-Jul-14 13:53N 51°28' E 003°42'0 0.0
2017-Jul-14 13:29N 51°28' E 003°42'0 0.0
2017-Jul-14 12:11N 51°28' E 003°42'0 0.0
2017-Jul-14 11:59N 51°28' E 003°42'0 0.1
2017-Jul-14 07:08N 51°28' E 003°42'0 0.0
2017-Jul-14 02:17N 51°28' E 003°42'0 0.0
2017-Jul-14 01:59N 51°28' E 003°42'0 0.0
2017-Jul-14 00:05N 51°28' E 003°42'0 0.0
2017-Jul-13 22:32N 51°28' E 003°42'0 0.1
2017-Jul-13 22:26N 51°28' E 003°42'0 0.0
2017-Jul-13 21:56N 51°28' E 003°42'0 0.0
2017-Jul-13 21:14N 51°28' E 003°42'0 0.0
2017-Jul-13 20:59N 51°28' E 003°42'0 0.0
2017-Jul-13 19:56N 51°28' E 003°42'0 0.0
2017-Jul-13 19:23N 51°28' E 003°42'0 0.0
2017-Jul-13 16:53N 51°28' E 003°42'0 0.0
2017-Jul-13 16:23N 51°28' E 003°42'0 0.0
2017-Jul-13 15:02N 51°28' E 003°42'0 0.0
2017-Jul-13 13:50N 51°28' E 003°42'0 0.0
2017-Jul-13 13:05N 51°28' E 003°42'0 0.0
2017-Jul-13 12:44N 51°28' E 003°42'0 0.0
2017-Jul-13 11:29N 51°28' E 003°42'0 0.0
2017-Jul-13 10:26N 51°28' E 003°42'0 0.0
2017-Jul-13 05:14N 51°28' E 003°42'0 0.0
2017-Jul-13 04:50N 51°28' E 003°42'0 0.0
2017-Jul-13 04:05N 51°28' E 003°42'0 0.0
2017-Jul-13 01:53N 51°28' E 003°42'0 0.0
2017-Jul-12 23:59N 51°28' E 003°42'0 0.0
2017-Jul-12 22:26N 51°28' E 003°42'0 0.0
2017-Jul-12 21:53N 51°28' E 003°42'1 2.1
2017-Jul-12 21:17N 51°27' E 003°41'3 9.0
2017-Jul-12 21:00N 51°26' E 003°37'4 8.6
2017-Jul-12 20:30N 51°28' E 003°31'510.4
2017-Jul-12 20:01N 51°32' E 003°25'5 9.7
2017-Jul-12 19:30N 51°36' E 003°22'713.6
2017-Jul-12 19:00N 51°42' E 003°17'4 7.7
2017-Jul-12 18:30N 51°46' E 003°17'3 0.4
2017-Jul-12 09:58N 51°48' E 003°21'0 0.0
2017-Jul-12 09:30N 51°48' E 003°21'0 0.0
2017-Jul-12 09:00N 51°48' E 003°21'0 0.0
2017-Jul-12 08:30N 51°48' E 003°21'0 0.1
2017-Jul-12 07:59N 51°48' E 003°21'0 0.2
2017-Jul-12 07:30N 51°48' E 003°21'0 0.2
2017-Jul-12 06:43N 51°48' E 003°21'0 0.0
2017-Jul-12 06:30N 51°48' E 003°21'0 0.0
2017-Jul-12 06:00N 51°48' E 003°21'0 0.0
2017-Jul-12 05:30N 51°48' E 003°21'0 0.0
2017-Jul-12 05:00N 51°48' E 003°21'0 0.0
2017-Jul-12 04:30N 51°48' E 003°21'0 0.0
2017-Jul-12 04:00N 51°48' E 003°21'0 0.0
2017-Jul-12 03:30N 51°48' E 003°21'0 0.0
2017-Jul-12 03:00N 51°48' E 003°21'0 0.0
2017-Jul-12 02:30N 51°48' E 003°21'0 0.0
2017-Jul-12 02:00N 51°48' E 003°21'0 0.0
2017-Jul-12 01:30N 51°48' E 003°21'0 0.2
2017-Jul-12 01:00N 51°48' E 003°21'0 0.1
2017-Jul-12 00:30N 51°48' E 003°21'0 0.1
2017-Jul-12 00:00N 51°48' E 003°21'0 0.0
2017-Jul-11 23:30N 51°48' E 003°21'0 0.0
2017-Jul-11 22:40N 51°48' E 003°21'0 0.0
2017-Jul-11 22:29N 51°48' E 003°21'0 0.0
2017-Jul-11 22:00N 51°48' E 003°21'0 0.2
2017-Jul-11 21:30N 51°48' E 003°21'0 0.2
2017-Jul-11 21:00N 51°48' E 003°22'0 0.2
2017-Jul-11 20:30N 51°48' E 003°22'0 0.0
2017-Jul-11 20:00N 51°48' E 003°22'0 0.1
2017-Jul-11 19:30N 51°48' E 003°22'0 0.0
2017-Jul-11 19:00N 51°48' E 003°22'0 0.0
2017-Jul-11 18:30N 51°48' E 003°22'0 0.0
2017-Jul-11 18:00N 51°48' E 003°22'0 0.0
2017-Jul-11 17:30N 51°48' E 003°22'0 0.0
2017-Jul-11 17:00N 51°48' E 003°21'0 0.0
2017-Jul-11 16:30N 51°48' E 003°21'0 0.0
2017-Jul-11 16:00N 51°48' E 003°22'0 0.0
2017-Jul-11 15:30N 51°48' E 003°21'0 0.1
2017-Jul-11 15:00N 51°48' E 003°22'0 0.0
2017-Jul-11 14:30N 51°48' E 003°22'0 0.0
2017-Jul-11 14:00N 51°48' E 003°22'0 0.0
2017-Jul-11 13:30N 51°48' E 003°22'0 0.1
2017-Jul-11 12:44N 51°48' E 003°21'0 0.0
2017-Jul-11 12:30N 51°48' E 003°21'0 0.1
2017-Jul-11 12:00N 51°48' E 003°21'0 0.1
2017-Jul-11 11:30N 51°48' E 003°21'0 0.0
2017-Jul-11 11:00N 51°48' E 003°21'0 0.0
2017-Jul-11 10:30N 51°48' E 003°21'0 0.0
2017-Jul-11 10:00N 51°48' E 003°21'0 0.0
2017-Jul-11 09:04N 51°48' E 003°21'0 0.0
2017-Jul-11 09:00N 51°48' E 003°21'0 0.1
2017-Jul-11 08:30N 51°48' E 003°21'0 0.1
2017-Jul-11 08:00N 51°48' E 003°21'0 0.2
2017-Jul-11 07:30N 51°48' E 003°22'0 0.1
2017-Jul-11 07:00N 51°48' E 003°22'0 0.0
2017-Jul-11 06:30N 51°48' E 003°22'0 0.0
2017-Jul-11 06:00N 51°48' E 003°22'  

Dump ship's entire track history